Messwerte Yaoundé

Temperatur

Temperatur
°C
1576260000 19.00 19.00 23
1576263600 20.00 20.00 23
1576267200 21.00 21.00 22
1576270800 22.00 22.00
1576274400 23.00 23.00
1576278000 0.00 0.00
1576281600 1.00 1.00 21
1576285200 2.00 2.00 21
1576288800 3.00 3.00 21
1576292400 4.00 4.00 21
1576296000 5.00 5.00 21
1576299600 6.00 6.00
1576303200 7.00 7.00 21
1576306800 8.00 8.00 22
1576310400 9.00 9.00 23
1576314000 10.00 10.00 25
1576317600 11.00 11.00 26
1576321200 12.00 12.00 27
1576324800 13.00 13.00 29
1576328400 14.00 14.00 31
1576332000 15.00 15.00 31
1576335600 16.00 16.00 30
1576339200 17.00 17.00 29
1576342800 18.00 18.00 25

Aktuellste Messwerte

Wettercharakter
Wetter: recht sonnig
Temperatur
25 °C
Feuchtigkeit
85 %
Wind
5 km/hWindrichtung: Südost
Luftdruck
1015 hPa
Messzeit: 14. Dezember 2019, 18.00Datenquelle: METAR

Weitere Messstationen in der Nähe

Messstation Temperatur Entfernung
Douala 29 °C 199 km
Malabo 28 °C 305 km
Libreville 28 °C 442 km

Wind

Windrichtung Böen Mittelwind
° km/h km/h
1576260000 19.00 18.00 - 19.00 240° 5
1576263600 20.00 19.00 - 20.00 5
1576267200 21.00 20.00 - 21.00 5
1576270800 22.00 21.00 - 22.00
1576274400 23.00 22.00 - 23.00
1576278000 0.00 23.00 - 0.00
1576281600 1.00 0.00 - 1.00 200° 5
1576285200 2.00 1.00 - 2.00 240° 5
1576288800 3.00 2.00 - 3.00 270° 10
1576292400 4.00 3.00 - 4.00 260° 5
1576296000 5.00 4.00 - 5.00 0
1576299600 6.00 5.00 - 6.00
1576303200 7.00 6.00 - 7.00 270° 5
1576306800 8.00 7.00 - 8.00 5
1576310400 9.00 8.00 - 9.00 270° 5
1576314000 10.00 9.00 - 10.00 5
1576317600 11.00 10.00 - 11.00 0
1576321200 12.00 11.00 - 12.00 310° 5
1576324800 13.00 12.00 - 13.00 60° 5
1576328400 14.00 13.00 - 14.00 5
1576332000 15.00 14.00 - 15.00 5
1576335600 16.00 15.00 - 16.00 50° 5
1576339200 17.00 16.00 - 17.00 70° 5
1576342800 18.00 17.00 - 18.00 120° 5

Ihre Wetterstation

Fehlt Ihre Wetterstation auf unserem Portal?

Schreiben Sie an network@meteonews.ch